Terminal Aerodrome Forecast
Issued by NWS Sioux Falls, SD

Home | Current Version | Previous Version | Text Only | Print | Product List | Glossary Off
Versions: 1 2 3 4 5 6 7 8 9 10 11 12 13 14 15 16 17 18 19 20 21 22 23

000
FTUS43 KFSD 261131
TAFSUX
TAF
KSUX 261131Z 2612/2712 02006KT P6SM SCT110 BKN200
     FM261300 04007KT P6SM BKN060
     FM261500 07010KT P6SM BKN060
     FM262200 08014G22KT P6SM VCTS BKN045CB
     FM270000 08016G23KT P6SM SHRA BKN050
     FM270300 08019G27KT 6SM TSRA BKN030 OVC050CB
     FM270600 10020G27KT P6SM SHRA OVC035
     FM270800 09019G26KT 5SM SHRA OVC010=

USA.gov is the U.S. government's official web portal to all federal, state and local government web resources and services.